This is the latest recevied weather packets stored in our database for station/object DB0PDF-L4. If no packets are shown the sender has not sent any weather packets the latest 10 day(s).
| Time | Temp. | Humidity | Pressure | Rain* | Wind** | Luminosity | Snow |
|---|---|---|---|---|---|---|---|
| 1777526476 | 14.44° C | 32% | 1022 hPa | - | - | - | - |
| 1777525575 | 13.33° C | 34% | 1022 hPa | - | - | - | - |
| 1777524674 | 11.67° C | 36% | 1022 hPa | - | - | - | - |
| 1777523773 | 10.56° C | 39% | 1022 hPa | - | - | - | - |
| 1777522872 | 10° C | 40% | 1022 hPa | - | - | - | - |
| 1777521971 | 10° C | 40% | 1022 hPa | - | - | - | - |
| 1777521070 | 10° C | 40% | 1022 hPa | - | - | - | - |
| 1777520169 | 10° C | 40% | 1022 hPa | - | - | - | - |
| 1777519268 | 10° C | 40% | 1022 hPa | - | - | - | - |
| 1777518367 | 10° C | 40% | 1022 hPa | - | - | - | - |
| 1777517465 | 10.56° C | 39% | 1022 hPa | - | - | - | - |
| 1777516564 | 10.56° C | 39% | 1021 hPa | - | - | - | - |
| 1777515663 | 10.56° C | 39% | 1021 hPa | - | - | - | - |
| 1777514762 | 10.56° C | 39% | 1021 hPa | - | - | - | - |
| 1777513861 | 11.11° C | 38% | 1021 hPa | - | - | - | - |
| 1777512960 | 11.11° C | 38% | 1021 hPa | - | - | - | - |
| 1777512059 | 11.67° C | 37% | 1021 hPa | - | - | - | - |
| 1777511157 | 11.67° C | 37% | 1021 hPa | - | - | - | - |
| 1777508454 | 12.22° C | 36% | 1021 hPa | - | - | - | - |
| 1777507553 | 12.22° C | 35% | 1021 hPa | - | - | - | - |
| 1777503048 | 13.33° C | 33% | 1021 hPa | - | - | - | - |
| 1777497641 | 15° C | 29% | 1020 hPa | - | - | - | - |
| 1777495839 | 15.56° C | 27% | 1020 hPa | - | - | - | - |
| 1777490432 | 18.33° C | 22% | 1020 hPa | - | - | - | - |
| 1777487729 | 20.56° C | 20% | 1019 hPa | - | - | - | - |
* Rain since midnight (hover to see other rain measurements)
** Current wind speed in m/s (hover to see current wind gust speed)